sensor_id;sensor_type;location;lat;lon;timestamp;temperature;humidity
4795;DHT22;2411;47.060;15.064;2022-08-19T00:01:36;15.90;1.00
4795;DHT22;2411;47.060;15.064;2022-08-19T00:04:07;15.90;1.00
4795;DHT22;2411;47.060;15.064;2022-08-19T00:06:35;15.80;1.00
4795;DHT22;2411;47.060;15.064;2022-08-19T00:09:05;15.90;1.00
4795;DHT22;2411;47.060;15.064;2022-08-19T00:11:32;15.80;1.00
4795;DHT22;2411;47.060;15.064;2022-08-19T00:14:01;15.80;1.00
4795;DHT22;2411;47.060;15.064;2022-08-19T00:16:27;15.90;1.00
4795;DHT22;2411;47.060;15.064;2022-08-19T00:18:55;16.00;1.00
4795;DHT22;2411;47.060;15.064;2022-08-19T00:21:24;15.90;1.00
4795;DHT22;2411;47.060;15.064;2022-08-19T00:23:52;15.90;1.00
4795;DHT22;2411;47.060;15.064;2022-08-19T00:26:20;15.90;1.00
4795;DHT22;2411;47.060;15.064;2022-08-19T00:28:47;15.80;1.00
4795;DHT22;2411;47.060;15.064;2022-08-19T00:31:14;15.80;1.00
4795;DHT22;2411;47.060;15.064;2022-08-19T00:33:43;15.70;1.00
4795;DHT22;2411;47.060;15.064;2022-08-19T00:36:10;15.70;1.00
4795;DHT22;2411;47.060;15.064;2022-08-19T00:38:38;15.70;1.00
4795;DHT22;2411;47.060;15.064;2022-08-19T00:41:16;15.70;1.00
4795;DHT22;2411;47.060;15.064;2022-08-19T00:44:19;15.70;1.00
4795;DHT22;2411;47.060;15.064;2022-08-19T00:46:44;15.70;1.00
4795;DHT22;2411;47.060;15.064;2022-08-19T00:51:57;15.90;1.00
4795;DHT22;2411;47.060;15.064;2022-08-19T00:54:26;15.90;1.00
4795;DHT22;2411;47.060;15.064;2022-08-19T00:56:57;16.00;1.00
4795;DHT22;2411;47.060;15.064;2022-08-19T00:59:25;16.10;1.00
4795;DHT22;2411;47.060;15.064;2022-08-19T01:02:12;16.10;1.00
4795;DHT22;2411;47.060;15.064;2022-08-19T01:04:39;16.20;1.00
4795;DHT22;2411;47.060;15.064;2022-08-19T01:07:06;16.30;1.00
4795;DHT22;2411;47.060;15.064;2022-08-19T01:09:33;16.40;1.00
4795;DHT22;2411;47.060;15.064;2022-08-19T01:12:01;16.40;1.00
4795;DHT22;2411;47.060;15.064;2022-08-19T01:14:29;16.50;1.00
4795;DHT22;2411;47.060;15.064;2022-08-19T01:16:57;16.60;1.00
4795;DHT22;2411;47.060;15.064;2022-08-19T01:19:31;16.60;1.00
4795;DHT22;2411;47.060;15.064;2022-08-19T01:22:18;16.50;1.00
4795;DHT22;2411;47.060;15.064;2022-08-19T01:24:56;16.50;1.00
4795;DHT22;2411;47.060;15.064;2022-08-19T01:27:25;16.40;1.00
4795;DHT22;2411;47.060;15.064;2022-08-19T01:29:55;16.40;1.00
4795;DHT22;2411;47.060;15.064;2022-08-19T01:32:23;16.30;1.00
4795;DHT22;2411;47.060;15.064;2022-08-19T01:35:00;16.20;1.00
4795;DHT22;2411;47.060;15.064;2022-08-19T01:37:28;16.20;1.00
4795;DHT22;2411;47.060;15.064;2022-08-19T01:39:57;16.10;1.00
4795;DHT22;2411;47.060;15.064;2022-08-19T01:42:24;16.10;1.00
4795;DHT22;2411;47.060;15.064;2022-08-19T01:44:56;16.10;1.00
4795;DHT22;2411;47.060;15.064;2022-08-19T01:47:23;16.10;1.00
4795;DHT22;2411;47.060;15.064;2022-08-19T01:49:50;16.10;1.00
4795;DHT22;2411;47.060;15.064;2022-08-19T01:52:17;16.00;1.00
4795;DHT22;2411;47.060;15.064;2022-08-19T01:54:44;16.00;1.00
4795;DHT22;2411;47.060;15.064;2022-08-19T01:57:12;15.90;1.00
4795;DHT22;2411;47.060;15.064;2022-08-19T01:59:42;15.90;1.00
4795;DHT22;2411;47.060;15.064;2022-08-19T02:02:10;15.90;1.00
4795;DHT22;2411;47.060;15.064;2022-08-19T02:04:37;15.90;1.00
4795;DHT22;2411;47.060;15.064;2022-08-19T02:07:07;16.00;1.00
4795;DHT22;2411;47.060;15.064;2022-08-19T02:09:35;16.50;1.00
4795;DHT22;2411;47.060;15.064;2022-08-19T02:12:03;16.70;1.00
4795;DHT22;2411;47.060;15.064;2022-08-19T02:14:30;16.70;1.00
4795;DHT22;2411;47.060;15.064;2022-08-19T02:16:57;16.80;1.00
4795;DHT22;2411;47.060;15.064;2022-08-19T02:19:24;16.90;1.00
4795;DHT22;2411;47.060;15.064;2022-08-19T02:21:51;16.90;1.00
4795;DHT22;2411;47.060;15.064;2022-08-19T02:24:17;17.10;1.00
4795;DHT22;2411;47.060;15.064;2022-08-19T02:26:44;17.10;1.00
4795;DHT22;2411;47.060;15.064;2022-08-19T02:29:11;17.10;1.00
4795;DHT22;2411;47.060;15.064;2022-08-19T02:31:38;17.00;1.00
4795;DHT22;2411;47.060;15.064;2022-08-19T02:34:05;17.00;1.00
4795;DHT22;2411;47.060;15.064;2022-08-19T02:36:32;16.90;1.00
4795;DHT22;2411;47.060;15.064;2022-08-19T02:38:59;16.80;1.00
4795;DHT22;2411;47.060;15.064;2022-08-19T02:41:28;16.80;1.00
4795;DHT22;2411;47.060;15.064;2022-08-19T02:43:57;16.70;1.00
4795;DHT22;2411;47.060;15.064;2022-08-19T02:46:48;16.70;1.00
4795;DHT22;2411;47.060;15.064;2022-08-19T02:49:17;16.60;1.00
4795;DHT22;2411;47.060;15.064;2022-08-19T02:51:45;16.50;1.00
4795;DHT22;2411;47.060;15.064;2022-08-19T02:54:14;16.60;1.00
4795;DHT22;2411;47.060;15.064;2022-08-19T02:56:42;16.50;1.00
4795;DHT22;2411;47.060;15.064;2022-08-19T02:59:09;16.60;1.00
4795;DHT22;2411;47.060;15.064;2022-08-19T03:01:39;16.60;1.00
4795;DHT22;2411;47.060;15.064;2022-08-19T03:04:09;16.60;1.00
4795;DHT22;2411;47.060;15.064;2022-08-19T03:06:38;16.60;1.00
4795;DHT22;2411;47.060;15.064;2022-08-19T03:09:06;16.60;1.00
4795;DHT22;2411;47.060;15.064;2022-08-19T03:11:34;16.60;1.00
4795;DHT22;2411;47.060;15.064;2022-08-19T03:14:01;16.60;1.00
4795;DHT22;2411;47.060;15.064;2022-08-19T03:16:30;16.60;1.00
4795;DHT22;2411;47.060;15.064;2022-08-19T03:19:00;16.50;1.00
4795;DHT22;2411;47.060;15.064;2022-08-19T03:21:31;16.50;1.00
4795;DHT22;2411;47.060;15.064;2022-08-19T03:24:03;16.50;1.00
4795;DHT22;2411;47.060;15.064;2022-08-19T03:26:30;16.50;1.00
4795;DHT22;2411;47.060;15.064;2022-08-19T03:29:01;16.50;1.00
4795;DHT22;2411;47.060;15.064;2022-08-19T03:31:31;16.60;1.00
4795;DHT22;2411;47.060;15.064;2022-08-19T03:34:21;16.60;1.00
4795;DHT22;2411;47.060;15.064;2022-08-19T03:36:48;16.70;1.00
4795;DHT22;2411;47.060;15.064;2022-08-19T03:39:16;16.80;1.00
4795;DHT22;2411;47.060;15.064;2022-08-19T03:41:44;17.60;1.00
4795;DHT22;2411;47.060;15.064;2022-08-19T03:44:16;18.40;1.00
4795;DHT22;2411;47.060;15.064;2022-08-19T03:46:47;18.80;1.00
4795;DHT22;2411;47.060;15.064;2022-08-19T03:49:14;18.90;1.00
4795;DHT22;2411;47.060;15.064;2022-08-19T03:51:45;18.90;1.00
4795;DHT22;2411;47.060;15.064;2022-08-19T03:54:14;18.80;1.00
4795;DHT22;2411;47.060;15.064;2022-08-19T03:56:43;18.70;1.00
4795;DHT22;2411;47.060;15.064;2022-08-19T03:59:14;18.60;1.00
4795;DHT22;2411;47.060;15.064;2022-08-19T04:01:42;18.50;1.00
4795;DHT22;2411;47.060;15.064;2022-08-19T04:04:09;18.50;1.00
4795;DHT22;2411;47.060;15.064;2022-08-19T04:06:38;18.50;1.00
4795;DHT22;2411;47.060;15.064;2022-08-19T04:09:08;18.40;1.00
4795;DHT22;2411;47.060;15.064;2022-08-19T04:11:56;18.30;1.00
4795;DHT22;2411;47.060;15.064;2022-08-19T04:14:26;18.20;1.00
4795;DHT22;2411;47.060;15.064;2022-08-19T04:16:55;18.10;1.00
4795;DHT22;2411;47.060;15.064;2022-08-19T04:19:22;18.10;1.00
4795;DHT22;2411;47.060;15.064;2022-08-19T04:21:51;18.10;1.00
4795;DHT22;2411;47.060;15.064;2022-08-19T04:24:18;18.20;1.00
4795;DHT22;2411;47.060;15.064;2022-08-19T04:26:46;18.20;1.00
4795;DHT22;2411;47.060;15.064;2022-08-19T04:29:23;18.20;1.00
4795;DHT22;2411;47.060;15.064;2022-08-19T04:31:53;18.20;1.00
4795;DHT22;2411;47.060;15.064;2022-08-19T04:34:22;18.20;1.00
4795;DHT22;2411;47.060;15.064;2022-08-19T04:36:50;18.20;1.00
4795;DHT22;2411;47.060;15.064;2022-08-19T04:39:23;18.20;1.00
4795;DHT22;2411;47.060;15.064;2022-08-19T04:42:10;18.10;1.00
4795;DHT22;2411;47.060;15.064;2022-08-19T04:44:56;18.10;1.00
4795;DHT22;2411;47.060;15.064;2022-08-19T04:47:24;18.00;1.00
4795;DHT22;2411;47.060;15.064;2022-08-19T04:50:11;17.90;1.00
4795;DHT22;2411;47.060;15.064;2022-08-19T04:52:39;17.90;1.00
4795;DHT22;2411;47.060;15.064;2022-08-19T04:55:12;17.90;1.00
4795;DHT22;2411;47.060;15.064;2022-08-19T04:57:40;17.90;1.00
4795;DHT22;2411;47.060;15.064;2022-08-19T05:00:08;17.90;1.00
4795;DHT22;2411;47.060;15.064;2022-08-19T05:02:36;17.90;1.00
4795;DHT22;2411;47.060;15.064;2022-08-19T05:05:04;18.00;1.00
4795;DHT22;2411;47.060;15.064;2022-08-19T05:07:33;18.10;1.00
4795;DHT22;2411;47.060;15.064;2022-08-19T05:10:00;18.20;1.00
4795;DHT22;2411;47.060;15.064;2022-08-19T05:12:27;18.30;1.00
4795;DHT22;2411;47.060;15.064;2022-08-19T05:14:56;18.30;1.00
4795;DHT22;2411;47.060;15.064;2022-08-19T05:17:25;18.40;1.00
4795;DHT22;2411;47.060;15.064;2022-08-19T05:19:57;18.50;1.00
4795;DHT22;2411;47.060;15.064;2022-08-19T05:22:43;18.50;1.00
4795;DHT22;2411;47.060;15.064;2022-08-19T05:25:15;18.60;1.00
4795;DHT22;2411;47.060;15.064;2022-08-19T05:27:42;18.60;1.00
4795;DHT22;2411;47.060;15.064;2022-08-19T05:30:10;18.60;1.00
4795;DHT22;2411;47.060;15.064;2022-08-19T05:32:38;18.60;1.00
4795;DHT22;2411;47.060;15.064;2022-08-19T05:35:06;18.60;1.00
4795;DHT22;2411;47.060;15.064;2022-08-19T05:37:33;18.60;1.00
4795;DHT22;2411;47.060;15.064;2022-08-19T05:40:00;18.70;1.00
4795;DHT22;2411;47.060;15.064;2022-08-19T05:42:28;18.90;1.00
4795;DHT22;2411;47.060;15.064;2022-08-19T05:44:55;19.00;1.00
4795;DHT22;2411;47.060;15.064;2022-08-19T05:47:23;19.00;1.00
4795;DHT22;2411;47.060;15.064;2022-08-19T05:49:50;19.10;1.00
4795;DHT22;2411;47.060;15.064;2022-08-19T05:52:18;19.30;1.00
4795;DHT22;2411;47.060;15.064;2022-08-19T05:54:52;19.40;1.00
4795;DHT22;2411;47.060;15.064;2022-08-19T05:57:22;19.50;1.00
4795;DHT22;2411;47.060;15.064;2022-08-19T05:59:49;19.50;1.00
4795;DHT22;2411;47.060;15.064;2022-08-19T06:02:23;19.50;1.00
4795;DHT22;2411;47.060;15.064;2022-08-19T06:04:51;19.50;1.00
4795;DHT22;2411;47.060;15.064;2022-08-19T06:07:18;19.50;1.00
4795;DHT22;2411;47.060;15.064;2022-08-19T06:09:46;19.40;1.00
4795;DHT22;2411;47.060;15.064;2022-08-19T06:12:25;19.10;1.00
4795;DHT22;2411;47.060;15.064;2022-08-19T06:14:55;19.20;1.00
4795;DHT22;2411;47.060;15.064;2022-08-19T06:17:27;19.30;1.00
4795;DHT22;2411;47.060;15.064;2022-08-19T06:19:58;19.40;1.00
4795;DHT22;2411;47.060;15.064;2022-08-19T06:22:26;19.70;1.00
4795;DHT22;2411;47.060;15.064;2022-08-19T06:24:55;19.90;1.00
4795;DHT22;2411;47.060;15.064;2022-08-19T06:27:22;20.00;1.00
4795;DHT22;2411;47.060;15.064;2022-08-19T06:29:49;20.20;1.00
4795;DHT22;2411;47.060;15.064;2022-08-19T06:32:17;20.30;1.00
4795;DHT22;2411;47.060;15.064;2022-08-19T06:34:46;20.30;1.00
4795;DHT22;2411;47.060;15.064;2022-08-19T06:37:13;20.40;1.00
4795;DHT22;2411;47.060;15.064;2022-08-19T06:39:43;20.50;1.00
4795;DHT22;2411;47.060;15.064;2022-08-19T06:42:11;20.50;1.00
4795;DHT22;2411;47.060;15.064;2022-08-19T06:44:45;20.50;1.00
4795;DHT22;2411;47.060;15.064;2022-08-19T06:47:19;20.60;1.00
4795;DHT22;2411;47.060;15.064;2022-08-19T06:49:55;20.70;1.00
4795;DHT22;2411;47.060;15.064;2022-08-19T06:52:35;20.60;1.00
4795;DHT22;2411;47.060;15.064;2022-08-19T06:55:04;20.60;1.00
4795;DHT22;2411;47.060;15.064;2022-08-19T06:57:33;20.60;1.00
4795;DHT22;2411;47.060;15.064;2022-08-19T07:00:01;20.60;1.00
4795;DHT22;2411;47.060;15.064;2022-08-19T07:02:28;20.60;1.00
4795;DHT22;2411;47.060;15.064;2022-08-19T07:04:55;20.70;1.00
4795;DHT22;2411;47.060;15.064;2022-08-19T07:07:25;20.70;1.00
4795;DHT22;2411;47.060;15.064;2022-08-19T07:09:52;20.60;1.00
4795;DHT22;2411;47.060;15.064;2022-08-19T07:12:29;20.50;1.00
4795;DHT22;2411;47.060;15.064;2022-08-19T07:14:58;20.40;1.00
4795;DHT22;2411;47.060;15.064;2022-08-19T07:17:25;20.30;1.00
4795;DHT22;2411;47.060;15.064;2022-08-19T07:19:52;20.30;1.00
4795;DHT22;2411;47.060;15.064;2022-08-19T07:22:20;20.20;1.00
4795;DHT22;2411;47.060;15.064;2022-08-19T07:24:51;20.20;1.00
4795;DHT22;2411;47.060;15.064;2022-08-19T07:27:19;20.30;1.00
4795;DHT22;2411;47.060;15.064;2022-08-19T07:29:51;20.40;1.00
4795;DHT22;2411;47.060;15.064;2022-08-19T07:32:23;20.50;1.00
4795;DHT22;2411;47.060;15.064;2022-08-19T07:34:53;20.60;1.00
4795;DHT22;2411;47.060;15.064;2022-08-19T07:37:20;20.50;1.00
4795;DHT22;2411;47.060;15.064;2022-08-19T07:39:47;20.60;1.00
4795;DHT22;2411;47.060;15.064;2022-08-19T07:42:14;20.70;1.00
4795;DHT22;2411;47.060;15.064;2022-08-19T07:44:41;20.70;1.00
4795;DHT22;2411;47.060;15.064;2022-08-19T07:47:16;20.70;1.00
4795;DHT22;2411;47.060;15.064;2022-08-19T07:50:07;20.80;1.00
4795;DHT22;2411;47.060;15.064;2022-08-19T07:52:35;21.00;1.00
4795;DHT22;2411;47.060;15.064;2022-08-19T07:55:04;21.20;1.00
4795;DHT22;2411;47.060;15.064;2022-08-19T07:57:52;21.40;1.00
4795;DHT22;2411;47.060;15.064;2022-08-19T08:00:20;21.50;1.00
4795;DHT22;2411;47.060;15.064;2022-08-19T08:02:50;21.80;1.00
4795;DHT22;2411;47.060;15.064;2022-08-19T08:05:17;21.80;1.00
4795;DHT22;2411;47.060;15.064;2022-08-19T08:08:08;21.80;1.00
4795;DHT22;2411;47.060;15.064;2022-08-19T08:10:53;22.00;1.00
4795;DHT22;2411;47.060;15.064;2022-08-19T08:13:24;22.00;1.00
4795;DHT22;2411;47.060;15.064;2022-08-19T08:15:52;22.00;1.00
4795;DHT22;2411;47.060;15.064;2022-08-19T08:18:21;22.20;1.00
4795;DHT22;2411;47.060;15.064;2022-08-19T08:20:54;22.30;1.00
4795;DHT22;2411;47.060;15.064;2022-08-19T08:23:21;22.40;1.00
4795;DHT22;2411;47.060;15.064;2022-08-19T08:25:54;22.50;1.00
4795;DHT22;2411;47.060;15.064;2022-08-19T08:28:24;22.60;1.00
4795;DHT22;2411;47.060;15.064;2022-08-19T08:30:56;22.40;1.00
4795;DHT22;2411;47.060;15.064;2022-08-19T08:33:26;22.20;1.00
4795;DHT22;2411;47.060;15.064;2022-08-19T08:35:59;21.90;1.00
4795;DHT22;2411;47.060;15.064;2022-08-19T08:38:25;21.70;1.00
4795;DHT22;2411;47.060;15.064;2022-08-19T08:40:59;21.70;1.00
4795;DHT22;2411;47.060;15.064;2022-08-19T08:43:38;22.00;1.00
4795;DHT22;2411;47.060;15.064;2022-08-19T08:51:37;22.40;1.00
4795;DHT22;2411;47.060;15.064;2022-08-19T08:54:14;22.40;1.00
4795;DHT22;2411;47.060;15.064;2022-08-19T08:56:43;22.70;1.00
4795;DHT22;2411;47.060;15.064;2022-08-19T08:59:31;23.00;1.00
4795;DHT22;2411;47.060;15.064;2022-08-19T09:02:00;23.40;1.00
4795;DHT22;2411;47.060;15.064;2022-08-19T09:04:28;23.60;1.00
4795;DHT22;2411;47.060;15.064;2022-08-19T09:10:15;23.90;1.00
4795;DHT22;2411;47.060;15.064;2022-08-19T09:15:39;23.70;1.00
4795;DHT22;2411;47.060;15.064;2022-08-19T09:18:08;23.70;1.00
4795;DHT22;2411;47.060;15.064;2022-08-19T09:20:40;23.80;1.00
4795;DHT22;2411;47.060;15.064;2022-08-19T09:23:08;23.90;1.00
4795;DHT22;2411;47.060;15.064;2022-08-19T09:25:37;23.90;1.00
4795;DHT22;2411;47.060;15.064;2022-08-19T09:28:07;24.00;1.00
4795;DHT22;2411;47.060;15.064;2022-08-19T09:30:48;24.10;1.00
4795;DHT22;2411;47.060;15.064;2022-08-19T09:33:18;24.00;1.00
4795;DHT22;2411;47.060;15.064;2022-08-19T09:35:46;23.60;1.00
4795;DHT22;2411;47.060;15.064;2022-08-19T09:38:19;23.20;1.00
4795;DHT22;2411;47.060;15.064;2022-08-19T09:40:46;23.20;1.00
4795;DHT22;2411;47.060;15.064;2022-08-19T09:43:13;23.50;1.00
4795;DHT22;2411;47.060;15.064;2022-08-19T09:45:59;23.80;1.00
4795;DHT22;2411;47.060;15.064;2022-08-19T09:48:26;23.90;1.00
4795;DHT22;2411;47.060;15.064;2022-08-19T09:50:53;24.40;1.00
4795;DHT22;2411;47.060;15.064;2022-08-19T09:53:20;24.70;1.00
4795;DHT22;2411;47.060;15.064;2022-08-19T09:55:51;25.30;1.00
4795;DHT22;2411;47.060;15.064;2022-08-19T09:58:18;26.00;1.00
4795;DHT22;2411;47.060;15.064;2022-08-19T10:00:51;26.10;1.00
4795;DHT22;2411;47.060;15.064;2022-08-19T10:03:20;26.50;1.00
4795;DHT22;2411;47.060;15.064;2022-08-19T10:05:51;26.80;1.00
4795;DHT22;2411;47.060;15.064;2022-08-19T10:08:30;26.80;1.00
4795;DHT22;2411;47.060;15.064;2022-08-19T10:10:58;26.70;1.00
4795;DHT22;2411;47.060;15.064;2022-08-19T10:13:46;26.30;1.00
4795;DHT22;2411;47.060;15.064;2022-08-19T10:16:20;26.00;1.00
4795;DHT22;2411;47.060;15.064;2022-08-19T10:18:56;26.30;1.00
4795;DHT22;2411;47.060;15.064;2022-08-19T10:21:29;26.50;1.00
4795;DHT22;2411;47.060;15.064;2022-08-19T10:24:00;26.80;1.00
4795;DHT22;2411;47.060;15.064;2022-08-19T10:26:30;26.80;1.00
4795;DHT22;2411;47.060;15.064;2022-08-19T10:28:58;27.00;1.00
4795;DHT22;2411;47.060;15.064;2022-08-19T10:31:28;27.10;1.00
4795;DHT22;2411;47.060;15.064;2022-08-19T10:34:15;27.10;1.00
4795;DHT22;2411;47.060;15.064;2022-08-19T10:36:54;27.30;1.00
4795;DHT22;2411;47.060;15.064;2022-08-19T10:39:22;27.20;1.00
4795;DHT22;2411;47.060;15.064;2022-08-19T10:41:56;27.20;1.00
4795;DHT22;2411;47.060;15.064;2022-08-19T10:44:23;26.90;1.00
4795;DHT22;2411;47.060;15.064;2022-08-19T10:46:58;26.90;1.00
4795;DHT22;2411;47.060;15.064;2022-08-19T10:49:25;26.80;1.00
4795;DHT22;2411;47.060;15.064;2022-08-19T10:51:54;26.90;1.00
4795;DHT22;2411;47.060;15.064;2022-08-19T10:54:47;27.00;1.00
4795;DHT22;2411;47.060;15.064;2022-08-19T10:57:34;27.10;1.00
4795;DHT22;2411;47.060;15.064;2022-08-19T11:00:22;27.10;1.00
4795;DHT22;2411;47.060;15.064;2022-08-19T11:02:50;27.10;1.00
4795;DHT22;2411;47.060;15.064;2022-08-19T11:05:18;27.00;1.00
4795;DHT22;2411;47.060;15.064;2022-08-19T11:07:45;27.10;1.00
4795;DHT22;2411;47.060;15.064;2022-08-19T11:10:14;27.20;1.00
4795;DHT22;2411;47.060;15.064;2022-08-19T11:12:47;27.40;1.00
4795;DHT22;2411;47.060;15.064;2022-08-19T11:15:14;27.50;1.00
4795;DHT22;2411;47.060;15.064;2022-08-19T11:17:41;27.90;1.00
4795;DHT22;2411;47.060;15.064;2022-08-19T11:20:14;28.10;1.00
4795;DHT22;2411;47.060;15.064;2022-08-19T11:22:42;28.30;1.00
4795;DHT22;2411;47.060;15.064;2022-08-19T11:25:10;28.10;1.00
4795;DHT22;2411;47.060;15.064;2022-08-19T11:27:39;28.30;1.00
4795;DHT22;2411;47.060;15.064;2022-08-19T11:30:10;28.20;1.00
4795;DHT22;2411;47.060;15.064;2022-08-19T11:32:40;28.30;1.00
4795;DHT22;2411;47.060;15.064;2022-08-19T11:35:13;28.10;1.00
4795;DHT22;2411;47.060;15.064;2022-08-19T11:37:40;27.60;1.00
4795;DHT22;2411;47.060;15.064;2022-08-19T11:40:07;27.70;1.00
4795;DHT22;2411;47.060;15.064;2022-08-19T11:42:35;28.10;1.00
4795;DHT22;2411;47.060;15.064;2022-08-19T11:45:21;28.70;1.00
4795;DHT22;2411;47.060;15.064;2022-08-19T11:47:48;29.20;1.00
4795;DHT22;2411;47.060;15.064;2022-08-19T11:50:15;29.30;1.00
4795;DHT22;2411;47.060;15.064;2022-08-19T11:52:43;29.10;1.00
4795;DHT22;2411;47.060;15.064;2022-08-19T11:55:13;28.50;1.00
4795;DHT22;2411;47.060;15.064;2022-08-19T11:57:40;28.40;1.00
4795;DHT22;2411;47.060;15.064;2022-08-19T12:00:08;28.10;1.00
4795;DHT22;2411;47.060;15.064;2022-08-19T12:02:37;28.00;1.00
4795;DHT22;2411;47.060;15.064;2022-08-19T12:05:05;27.90;1.00
4795;DHT22;2411;47.060;15.064;2022-08-19T12:07:38;28.10;1.00
4795;DHT22;2411;47.060;15.064;2022-08-19T12:10:06;28.10;1.00
4795;DHT22;2411;47.060;15.064;2022-08-19T12:12:34;28.10;1.00
4795;DHT22;2411;47.060;15.064;2022-08-19T12:15:01;28.30;1.00
4795;DHT22;2411;47.060;15.064;2022-08-19T12:17:28;28.40;1.00
4795;DHT22;2411;47.060;15.064;2022-08-19T12:19:57;28.30;1.00
4795;DHT22;2411;47.060;15.064;2022-08-19T12:22:24;28.20;1.00
4795;DHT22;2411;47.060;15.064;2022-08-19T12:24:51;28.40;1.00
4795;DHT22;2411;47.060;15.064;2022-08-19T12:27:19;28.30;1.00
4795;DHT22;2411;47.060;15.064;2022-08-19T12:30:09;28.30;1.00
4795;DHT22;2411;47.060;15.064;2022-08-19T12:32:37;28.00;1.00
4795;DHT22;2411;47.060;15.064;2022-08-19T12:35:05;28.00;1.00
4795;DHT22;2411;47.060;15.064;2022-08-19T12:37:32;28.10;1.00
4795;DHT22;2411;47.060;15.064;2022-08-19T12:40:00;28.20;1.00
4795;DHT22;2411;47.060;15.064;2022-08-19T12:42:27;28.00;1.00
4795;DHT22;2411;47.060;15.064;2022-08-19T12:44:55;27.90;1.00
4795;DHT22;2411;47.060;15.064;2022-08-19T12:47:22;28.00;1.00
4795;DHT22;2411;47.060;15.064;2022-08-19T12:49:49;28.20;1.00
4795;DHT22;2411;47.060;15.064;2022-08-19T12:52:22;28.10;1.00
4795;DHT22;2411;47.060;15.064;2022-08-19T12:54:51;27.80;1.00
4795;DHT22;2411;47.060;15.064;2022-08-19T12:57:25;27.30;1.00
4795;DHT22;2411;47.060;15.064;2022-08-19T13:00:00;27.00;1.00
4795;DHT22;2411;47.060;15.064;2022-08-19T13:02:30;26.80;1.00
4795;DHT22;2411;47.060;15.064;2022-08-19T13:05:05;26.90;1.00
4795;DHT22;2411;47.060;15.064;2022-08-19T13:07:35;27.10;1.00
4795;DHT22;2411;47.060;15.064;2022-08-19T13:10:02;27.20;1.00
4795;DHT22;2411;47.060;15.064;2022-08-19T13:12:29;27.30;1.00
4795;DHT22;2411;47.060;15.064;2022-08-19T13:14:56;27.20;1.00
4795;DHT22;2411;47.060;15.064;2022-08-19T13:17:24;26.50;1.00
4795;DHT22;2411;47.060;15.064;2022-08-19T13:19:51;26.40;1.00
4795;DHT22;2411;47.060;15.064;2022-08-19T13:22:18;26.40;1.00
4795;DHT22;2411;47.060;15.064;2022-08-19T13:24:44;26.30;1.00
4795;DHT22;2411;47.060;15.064;2022-08-19T13:27:13;26.30;1.00
4795;DHT22;2411;47.060;15.064;2022-08-19T13:29:41;26.70;1.00
4795;DHT22;2411;47.060;15.064;2022-08-19T13:32:28;27.10;1.00
4795;DHT22;2411;47.060;15.064;2022-08-19T13:35:15;27.50;1.00
4795;DHT22;2411;47.060;15.064;2022-08-19T13:37:43;27.90;1.00
4795;DHT22;2411;47.060;15.064;2022-08-19T13:40:15;27.90;1.00
4795;DHT22;2411;47.060;15.064;2022-08-19T13:42:47;28.10;1.00
4795;DHT22;2411;47.060;15.064;2022-08-19T13:45:16;28.10;1.00
4795;DHT22;2411;47.060;15.064;2022-08-19T13:47:46;27.80;1.00
4795;DHT22;2411;47.060;15.064;2022-08-19T13:50:15;27.70;1.00
4795;DHT22;2411;47.060;15.064;2022-08-19T13:52:43;27.50;1.00
4795;DHT22;2411;47.060;15.064;2022-08-19T13:55:11;27.60;1.00
4795;DHT22;2411;47.060;15.064;2022-08-19T13:57:38;27.50;1.00
4795;DHT22;2411;47.060;15.064;2022-08-19T14:00:16;27.30;1.00
4795;DHT22;2411;47.060;15.064;2022-08-19T14:02:47;27.30;1.00
4795;DHT22;2411;47.060;15.064;2022-08-19T14:05:15;27.30;1.00
4795;DHT22;2411;47.060;15.064;2022-08-19T14:07:42;27.30;1.00
4795;DHT22;2411;47.060;15.064;2022-08-19T14:10:10;27.30;1.00
4795;DHT22;2411;47.060;15.064;2022-08-19T14:12:38;27.30;1.00
4795;DHT22;2411;47.060;15.064;2022-08-19T14:15:07;27.40;1.00
4795;DHT22;2411;47.060;15.064;2022-08-19T14:17:41;27.40;1.00
4795;DHT22;2411;47.060;15.064;2022-08-19T14:20:10;27.30;1.00
4795;DHT22;2411;47.060;15.064;2022-08-19T14:22:45;27.20;1.00
4795;DHT22;2411;47.060;15.064;2022-08-19T14:25:19;27.20;1.00
4795;DHT22;2411;47.060;15.064;2022-08-19T14:27:47;27.20;1.00
4795;DHT22;2411;47.060;15.064;2022-08-19T14:30:20;27.40;1.00
4795;DHT22;2411;47.060;15.064;2022-08-19T14:32:47;27.40;1.00
4795;DHT22;2411;47.060;15.064;2022-08-19T14:35:15;27.40;1.00
4795;DHT22;2411;47.060;15.064;2022-08-19T14:37:43;27.50;1.00
4795;DHT22;2411;47.060;15.064;2022-08-19T14:40:14;27.40;1.00
4795;DHT22;2411;47.060;15.064;2022-08-19T14:42:42;27.40;1.00
4795;DHT22;2411;47.060;15.064;2022-08-19T14:45:11;27.30;1.00
4795;DHT22;2411;47.060;15.064;2022-08-19T14:47:38;27.10;1.00
4795;DHT22;2411;47.060;15.064;2022-08-19T14:50:08;26.80;1.00
4795;DHT22;2411;47.060;15.064;2022-08-19T14:52:43;26.50;1.00
4795;DHT22;2411;47.060;15.064;2022-08-19T14:55:10;26.50;1.00
4795;DHT22;2411;47.060;15.064;2022-08-19T14:57:37;26.50;1.00
4795;DHT22;2411;47.060;15.064;2022-08-19T15:00:05;26.40;1.00
4795;DHT22;2411;47.060;15.064;2022-08-19T15:02:32;26.50;1.00
4795;DHT22;2411;47.060;15.064;2022-08-19T15:05:01;26.60;1.00
4795;DHT22;2411;47.060;15.064;2022-08-19T15:07:28;26.90;1.00
4795;DHT22;2411;47.060;15.064;2022-08-19T15:09:56;27.20;1.00
4795;DHT22;2411;47.060;15.064;2022-08-19T15:12:24;27.30;1.00
4795;DHT22;2411;47.060;15.064;2022-08-19T15:14:51;27.40;1.00
4795;DHT22;2411;47.060;15.064;2022-08-19T15:17:22;27.40;1.00
4795;DHT22;2411;47.060;15.064;2022-08-19T15:20:13;27.40;1.00
4795;DHT22;2411;47.060;15.064;2022-08-19T15:22:40;27.50;1.00
4795;DHT22;2411;47.060;15.064;2022-08-19T15:25:10;27.20;1.00
4795;DHT22;2411;47.060;15.064;2022-08-19T15:27:40;27.10;1.00
4795;DHT22;2411;47.060;15.064;2022-08-19T15:30:08;26.80;1.00
4795;DHT22;2411;47.060;15.064;2022-08-19T15:32:36;26.50;1.00
4795;DHT22;2411;47.060;15.064;2022-08-19T15:35:04;26.20;1.00
4795;DHT22;2411;47.060;15.064;2022-08-19T15:37:32;26.00;1.00
4795;DHT22;2411;47.060;15.064;2022-08-19T15:40:04;25.80;1.00
4795;DHT22;2411;47.060;15.064;2022-08-19T15:42:32;25.50;1.00
4795;DHT22;2411;47.060;15.064;2022-08-19T15:44:59;25.40;1.00
4795;DHT22;2411;47.060;15.064;2022-08-19T15:47:28;25.10;1.00
4795;DHT22;2411;47.060;15.064;2022-08-19T15:50:25;24.90;1.00
4795;DHT22;2411;47.060;15.064;2022-08-19T15:53:01;24.70;1.00
4795;DHT22;2411;47.060;15.064;2022-08-19T15:55:31;24.60;1.00
4795;DHT22;2411;47.060;15.064;2022-08-19T15:58:04;24.40;1.00
4795;DHT22;2411;47.060;15.064;2022-08-19T16:00:58;24.20;1.00
4795;DHT22;2411;47.060;15.064;2022-08-19T16:03:50;24.10;1.00
4795;DHT22;2411;47.060;15.064;2022-08-19T16:06:45;23.90;1.00
4795;DHT22;2411;47.060;15.064;2022-08-19T16:09:13;23.90;1.00
4795;DHT22;2411;47.060;15.064;2022-08-19T16:11:41;23.90;1.00
4795;DHT22;2411;47.060;15.064;2022-08-19T16:14:15;23.80;1.00
4795;DHT22;2411;47.060;15.064;2022-08-19T16:16:43;23.80;1.00
4795;DHT22;2411;47.060;15.064;2022-08-19T16:19:14;23.80;1.00
4795;DHT22;2411;47.060;15.064;2022-08-19T16:21:44;24.40;1.00
4795;DHT22;2411;47.060;15.064;2022-08-19T16:24:12;24.50;1.00
4795;DHT22;2411;47.060;15.064;2022-08-19T16:26:41;24.50;1.00
4795;DHT22;2411;47.060;15.064;2022-08-19T16:29:08;24.50;1.00
4795;DHT22;2411;47.060;15.064;2022-08-19T16:31:43;24.90;1.00
4795;DHT22;2411;47.060;15.064;2022-08-19T16:34:12;25.30;1.00
4795;DHT22;2411;47.060;15.064;2022-08-19T16:36:40;25.40;1.00
4795;DHT22;2411;47.060;15.064;2022-08-19T16:39:09;25.80;1.00